SFI weather

Safi Airport
Safi, Tiznit Province, Morocco

Public forecast

Using degrees Celsius for public forecast. Weather courtesy of forecast.io.

Current aviation weather report (METAR) for Safi Airport

Report is more than 6 hours old.

Retrieved 2017/11/14 10:00 UTC (2 years ago):

GMMS 141000Z 10005KT 9999 SCT010 17/14 Q1019 NOSIG B2 B3

Aviation forecast (TAF) for Safi Airport

Forecast is more than 12 hours old.

Retrieved 2017/03/03 00:00 UTC (3 years ago):

TAF GMMS 032300Z 0400/0424 18010KT 9000 SCT017CB BKN033 TEMPO 0400/0424 4000 TSRA